createdAt,value
2019-04-10T00:01:01.449Z,2.30
2019-04-10T00:06:08.899Z,2.20
2019-04-10T00:11:16.591Z,2.00
2019-04-10T00:16:23.091Z,1.90
2019-04-10T00:21:30.001Z,1.80
2019-04-10T00:26:37.494Z,1.70
2019-04-10T00:31:44.576Z,1.60
2019-04-10T00:36:53.365Z,1.50
2019-04-10T00:42:01.458Z,1.40
2019-04-10T00:47:08.351Z,1.30
2019-04-10T00:52:16.374Z,1.10
2019-04-10T00:57:25.529Z,1.00
2019-04-10T01:02:32.377Z,1.00
2019-04-10T01:07:41.156Z,0.90
2019-04-10T01:12:48.339Z,0.80
2019-04-10T01:17:56.974Z,0.70
2019-04-10T01:23:03.877Z,0.70
2019-04-10T01:28:10.981Z,0.70
2019-04-10T01:33:19.334Z,0.70
2019-04-10T01:38:27.200Z,0.70
2019-04-10T01:43:33.299Z,0.70
2019-04-10T01:48:40.178Z,0.60
2019-04-10T01:53:46.218Z,0.60
2019-04-10T01:58:54.230Z,0.60
2019-04-10T02:04:00.760Z,0.50
2019-04-10T02:09:10.947Z,0.40
2019-04-10T02:14:18.387Z,0.40
2019-04-10T02:19:26.105Z,0.30
2019-04-10T02:24:35.558Z,0.30
2019-04-10T02:29:42.712Z,0.20
2019-04-10T02:34:50.688Z,0.20
2019-04-10T02:40:01.030Z,0.10
2019-04-10T02:45:08.457Z,0.10
2019-04-10T02:50:16.602Z,0.10
2019-04-10T02:55:25.061Z,0.00
2019-04-10T03:00:31.231Z,-0.10
2019-04-10T03:05:38.518Z,0.00
2019-04-10T03:10:51.783Z,0.00
2019-04-10T03:15:55.869Z,0.00
2019-04-10T03:21:04.844Z,0.00
2019-04-10T03:26:16.033Z,0.10
2019-04-10T03:31:24.688Z,0.10
2019-04-10T03:36:41.286Z,0.20
2019-04-10T03:41:48.383Z,0.20
2019-04-10T03:46:57.162Z,0.20
2019-04-10T03:52:05.193Z,0.30
2019-04-10T03:57:12.140Z,0.30
2019-04-10T04:02:20.671Z,0.30
2019-04-10T04:07:27.560Z,0.40
2019-04-10T04:12:35.061Z,0.30
2019-04-10T04:17:42.787Z,0.30
2019-04-10T04:22:49.673Z,0.40
2019-04-10T04:27:56.541Z,0.30
2019-04-10T04:33:03.370Z,0.40
2019-04-10T04:38:11.407Z,0.20
2019-04-10T04:43:19.424Z,0.30
2019-04-10T04:48:26.397Z,0.30
2019-04-10T04:53:34.360Z,0.10
2019-04-10T04:58:41.939Z,0.10
2019-04-10T05:03:48.866Z,0.00
2019-04-10T05:08:57.346Z,0.00
2019-04-10T05:14:04.867Z,0.10
2019-04-10T05:19:12.211Z,0.10
2019-04-10T05:24:20.113Z,0.20
2019-04-10T05:29:30.383Z,0.20
2019-04-10T05:34:36.170Z,0.50
2019-04-10T05:39:50.295Z,0.60
2019-04-10T05:44:52.884Z,0.60
2019-04-10T05:50:02.020Z,0.80
2019-04-10T05:55:10.134Z,0.80
2019-04-10T06:00:18.996Z,0.90
2019-04-10T06:05:27.837Z,1.10
2019-04-10T06:10:34.402Z,1.00
2019-04-10T06:15:41.380Z,1.30
2019-04-10T06:20:50.599Z,1.50
2019-04-10T06:25:58.371Z,1.40
2019-04-10T06:31:06.533Z,1.60
2019-04-10T06:36:15.376Z,1.60
2019-04-10T06:41:22.359Z,1.90
2019-04-10T06:46:29.324Z,2.00
2019-04-10T06:51:35.520Z,2.10
2019-04-10T06:56:45.927Z,2.20
2019-04-10T07:01:56.692Z,2.30
2019-04-10T07:07:07.794Z,2.40
2019-04-10T07:12:10.432Z,2.50
2019-04-10T07:17:17.966Z,2.70
2019-04-10T07:22:26.926Z,2.90
2019-04-10T07:27:38.255Z,2.90
2019-04-10T07:32:47.536Z,3.10
2019-04-10T07:37:56.667Z,3.10
2019-04-10T07:43:02.146Z,3.30
2019-04-10T07:48:10.734Z,3.50
2019-04-10T07:53:19.004Z,3.50
2019-04-10T07:58:26.935Z,3.70
2019-04-10T08:03:34.312Z,4.00
2019-04-10T08:08:42.610Z,4.20
2019-04-10T08:13:49.739Z,4.60
2019-04-10T08:18:57.836Z,4.70
2019-04-10T08:24:05.200Z,5.00
2019-04-10T08:29:12.133Z,5.00
2019-04-10T08:34:19.500Z,5.30
2019-04-10T08:39:36.041Z,5.40
2019-04-10T08:44:54.250Z,5.70
2019-04-10T08:50:03.583Z,5.90
2019-04-10T08:55:13.442Z,6.10
2019-04-10T09:00:21.622Z,5.90
2019-04-10T09:05:30.716Z,5.90
2019-04-10T09:10:38.502Z,6.00
2019-04-10T09:15:45.770Z,6.20
2019-04-10T09:20:55.698Z,6.40
2019-04-10T09:26:02.435Z,6.90
2019-04-10T09:31:10.313Z,6.70
2019-04-10T09:36:18.230Z,6.60
2019-04-10T09:41:26.563Z,7.00
2019-04-10T09:46:33.201Z,6.80
2019-04-10T09:51:40.488Z,7.40
2019-04-10T09:56:52.813Z,7.20
2019-04-10T10:02:02.661Z,7.60
2019-04-10T10:07:10.379Z,7.70
2019-04-10T10:12:17.948Z,7.30
2019-04-10T10:17:26.110Z,7.50
2019-04-10T10:22:33.877Z,7.50
2019-04-10T10:27:44.670Z,8.10
2019-04-10T10:32:53.205Z,8.40
2019-04-10T10:38:01.084Z,8.70
2019-04-10T10:43:09.981Z,8.90
2019-04-10T10:48:19.849Z,8.30
2019-04-10T10:53:26.674Z,8.60
2019-04-10T10:58:32.715Z,8.00
2019-04-10T11:03:38.850Z,9.10
2019-04-10T11:08:47.720Z,9.00
2019-04-10T11:13:55.099Z,9.60
2019-04-10T11:19:02.788Z,10.00
2019-04-10T11:24:13.648Z,10.40
2019-04-10T11:29:22.061Z,11.00
2019-04-10T11:34:29.228Z,10.30
2019-04-10T11:39:40.314Z,10.10
2019-04-10T11:44:49.337Z,10.70
2019-04-10T11:49:57.630Z,10.70
2019-04-10T11:55:10.595Z,11.00
2019-04-10T12:00:19.661Z,10.70
2019-04-10T12:05:25.836Z,11.20
2019-04-10T12:15:42.927Z,11.20
2019-04-10T12:20:51.535Z,11.20
2019-04-10T12:25:59.136Z,11.70
2019-04-10T12:31:06.010Z,11.70
2019-04-10T12:36:12.869Z,11.10
2019-04-10T12:41:19.317Z,10.90
2019-04-10T12:46:26.732Z,11.40
2019-04-10T12:51:32.584Z,11.70
2019-04-10T12:56:40.187Z,11.90
2019-04-10T13:01:47.091Z,12.40
2019-04-10T13:06:54.779Z,12.40
2019-04-10T13:12:00.749Z,12.10
2019-04-10T13:17:08.827Z,12.00
2019-04-10T13:22:17.991Z,10.90
2019-04-10T13:27:24.448Z,11.60
2019-04-10T13:32:31.930Z,11.50
2019-04-10T13:37:39.408Z,11.10
2019-04-10T13:42:47.436Z,11.20
2019-04-10T13:47:54.643Z,11.30
2019-04-10T13:53:01.668Z,11.60
2019-04-10T13:58:08.903Z,11.70
2019-04-10T14:03:20.696Z,11.50
2019-04-10T14:08:47.387Z,11.80
2019-04-10T14:13:37.917Z,11.80
2019-04-10T14:18:48.764Z,11.50
2019-04-10T14:23:55.890Z,11.10
2019-04-10T14:29:05.219Z,11.10
2019-04-10T14:39:31.327Z,11.60
2019-04-10T14:44:39.299Z,11.30
2019-04-10T14:49:46.219Z,11.00
2019-04-10T14:54:52.723Z,10.90
2019-04-10T14:59:58.275Z,10.80
2019-04-10T15:05:08.135Z,10.90
2019-04-10T15:10:15.901Z,10.60
2019-04-10T15:15:24.015Z,10.50
2019-04-10T15:20:31.309Z,10.40
2019-04-10T15:25:41.601Z,10.50
2019-04-10T15:30:50.747Z,10.80
2019-04-10T15:35:57.602Z,10.20
2019-04-10T15:41:06.780Z,10.70
2019-04-10T15:46:15.064Z,10.80
2019-04-10T15:51:22.447Z,10.70
2019-04-10T15:56:31.235Z,10.40
2019-04-10T16:01:39.279Z,10.40
2019-04-10T16:06:47.480Z,9.90
2019-04-10T16:11:58.530Z,10.30
2019-04-10T16:17:06.972Z,10.30
2019-04-10T16:22:19.392Z,9.90
2019-04-10T16:27:27.148Z,10.10
2019-04-10T16:32:33.086Z,9.70
2019-04-10T16:37:40.314Z,9.80
2019-04-10T16:42:46.868Z,9.60
2019-04-10T16:47:55.036Z,9.30
2019-04-10T16:53:03.527Z,9.30
2019-04-10T16:58:10.285Z,9.20
2019-04-10T17:03:17.630Z,8.90
2019-04-10T17:08:25.317Z,8.70
2019-04-10T17:13:31.135Z,8.50
2019-04-10T17:18:39.180Z,8.60
2019-04-10T17:23:49.100Z,8.20
2019-04-10T17:28:56.539Z,8.20
2019-04-10T17:34:02.812Z,7.70
2019-04-10T17:39:11.567Z,7.80
2019-04-10T17:44:19.350Z,7.40
2019-04-10T17:49:27.628Z,7.10
2019-04-10T17:54:34.580Z,7.10
2019-04-10T17:59:42.920Z,6.90
2019-04-10T18:04:50.389Z,6.60
2019-04-10T18:09:57.952Z,6.50
2019-04-10T18:15:08.166Z,6.30
2019-04-10T18:20:17.824Z,6.20
2019-04-10T18:25:25.669Z,6.20
2019-04-10T18:30:34.522Z,6.00
2019-04-10T18:35:41.108Z,5.90
2019-04-10T18:40:55.982Z,5.80
2019-04-10T18:46:10.189Z,5.60
2019-04-10T18:51:09.188Z,5.60
2019-04-10T18:56:16.687Z,5.40
2019-04-10T19:01:40.758Z,5.10
2019-04-10T19:06:53.709Z,5.00
2019-04-10T19:12:04.414Z,5.00
2019-04-10T19:17:13.172Z,4.70
2019-04-10T19:22:22.561Z,4.70
2019-04-10T19:27:29.296Z,4.50
2019-04-10T19:32:37.464Z,4.40
2019-04-10T19:37:45.804Z,4.30
2019-04-10T19:42:54.438Z,4.20
2019-04-10T19:48:01.333Z,4.20
2019-04-10T19:53:11.149Z,4.00
2019-04-10T19:58:19.624Z,4.00
2019-04-10T20:03:26.458Z,3.80
2019-04-10T20:08:33.581Z,3.90
2019-04-10T20:13:41.376Z,3.80
2019-04-10T20:18:49.359Z,3.80
2019-04-10T20:23:56.391Z,3.50
2019-04-10T20:29:03.108Z,3.50
2019-04-10T20:34:11.669Z,3.50
2019-04-10T20:39:19.704Z,3.50
2019-04-10T20:44:26.995Z,3.40
2019-04-10T20:49:36.430Z,3.30
2019-04-10T20:54:43.246Z,3.20
2019-04-10T20:59:50.937Z,3.20
2019-04-10T21:05:03.173Z,3.00
2019-04-10T21:10:06.942Z,2.90
2019-04-10T21:15:13.451Z,2.80
2019-04-10T21:20:22.481Z,2.60
2019-04-10T21:25:29.065Z,2.50
2019-04-10T21:30:52.898Z,2.50
2019-04-10T21:35:59.684Z,2.30
2019-04-10T21:41:09.533Z,2.10
2019-04-10T21:46:16.475Z,1.80
2019-04-10T21:51:25.396Z,1.70
2019-04-10T21:56:31.379Z,1.50
2019-04-10T22:01:38.113Z,1.60
2019-04-10T22:06:49.489Z,1.60
2019-04-10T22:11:57.509Z,1.40
2019-04-10T22:17:04.730Z,1.40
2019-04-10T22:22:12.704Z,1.40
2019-04-10T22:27:21.353Z,1.30
2019-04-10T22:32:29.045Z,1.40
2019-04-10T22:37:35.631Z,1.30
2019-04-10T22:42:46.326Z,1.30
2019-04-10T23:09:04.920Z,0.50
2019-04-10T23:14:12.397Z,0.40
2019-04-10T23:19:20.063Z,0.40
2019-04-10T23:24:27.631Z,0.20
2019-04-10T23:29:33.773Z,0.20
2019-04-10T23:34:41.678Z,0.10
2019-04-10T23:39:48.306Z,0.20
2019-04-10T23:44:55.397Z,0.10
2019-04-10T23:50:05.967Z,0.00
2019-04-10T23:55:13.621Z,0.00
